createdAt,value
2022-09-28T00:00:10.840Z,8.08
2022-09-28T00:02:39.137Z,8.06
2022-09-28T00:05:07.414Z,8.14
2022-09-28T00:07:35.163Z,8.15
2022-09-28T00:10:02.860Z,8.14
2022-09-28T00:12:31.478Z,8.16
2022-09-28T00:15:00.531Z,8.17
2022-09-28T00:17:28.193Z,8.19
2022-09-28T00:19:57.915Z,8.20
2022-09-28T00:22:26.017Z,8.21
2022-09-28T00:24:53.722Z,8.22
2022-09-28T00:27:21.428Z,8.20
2022-09-28T00:29:49.107Z,8.22
2022-09-28T00:32:18.215Z,8.20
2022-09-28T00:34:46.803Z,8.19
2022-09-28T00:37:15.150Z,8.20
2022-09-28T00:39:43.499Z,8.21
2022-09-28T00:42:14.752Z,8.24
2022-09-28T00:44:49.015Z,8.24
2022-09-28T00:47:24.469Z,8.27
2022-09-28T00:49:58.101Z,8.26
2022-09-28T00:52:32.595Z,8.27
2022-09-28T00:55:03.283Z,8.25
2022-09-28T00:57:31.773Z,8.27
2022-09-28T01:00:03.208Z,8.27
2022-09-28T01:02:32.521Z,8.30
2022-09-28T01:05:01.451Z,8.32
2022-09-28T01:07:29.910Z,8.36
2022-09-28T01:09:57.755Z,8.36
2022-09-28T01:12:25.406Z,8.30
2022-09-28T01:14:53.798Z,8.26
2022-09-28T01:17:29.738Z,8.20
2022-09-28T01:20:19.149Z,8.22
2022-09-28T01:23:19.043Z,8.24
2022-09-28T01:25:54.313Z,8.26
2022-09-28T01:28:26.531Z,8.30
2022-09-28T01:31:04.535Z,8.32
2022-09-28T01:33:39.110Z,8.28
2022-09-28T01:36:12.751Z,8.31
2022-09-28T01:38:44.447Z,8.34
2022-09-28T01:41:13.439Z,8.38
2022-09-28T01:43:48.135Z,8.38
2022-09-28T01:46:20.375Z,8.44
2022-09-28T01:48:55.077Z,8.49
2022-09-28T01:51:29.346Z,8.52
2022-09-28T01:54:02.066Z,8.58
2022-09-28T01:56:34.498Z,8.61
2022-09-28T01:59:08.445Z,8.64
2022-09-28T02:01:41.000Z,8.64
2022-09-28T02:04:13.159Z,8.65
2022-09-28T02:06:47.816Z,8.63
2022-09-28T02:09:22.092Z,8.67
2022-09-28T02:11:55.388Z,8.67
2022-09-28T02:14:26.312Z,8.68
2022-09-28T02:16:55.747Z,8.70
2022-09-28T02:19:26.460Z,8.71
2022-09-28T02:21:58.934Z,8.72
2022-09-28T02:24:32.349Z,8.72
2022-09-28T02:27:04.560Z,8.77
2022-09-28T02:29:33.595Z,8.80
2022-09-28T02:32:01.461Z,8.79
2022-09-28T02:34:29.101Z,8.78
2022-09-28T02:36:56.950Z,8.73
2022-09-28T02:39:24.871Z,8.66
2022-09-28T02:42:01.943Z,8.65
2022-09-28T02:45:05.944Z,8.64
2022-09-28T02:47:53.103Z,8.56
2022-09-28T02:50:31.431Z,8.50
2022-09-28T02:53:22.242Z,8.38
2022-09-28T02:56:05.967Z,8.29
2022-09-28T02:58:38.425Z,8.15
2022-09-28T03:01:20.719Z,8.05
2022-09-28T03:03:53.719Z,7.88
2022-09-28T03:06:28.349Z,7.75
2022-09-28T03:09:01.571Z,7.75
2022-09-28T03:11:36.336Z,7.67
2022-09-28T03:14:05.191Z,7.62
2022-09-28T03:16:34.220Z,7.54
2022-09-28T03:19:01.946Z,7.47
2022-09-28T03:21:29.577Z,7.40
2022-09-28T03:23:57.682Z,7.34
2022-09-28T03:26:25.336Z,7.29
2022-09-28T03:28:53.015Z,7.26
2022-09-28T03:31:20.698Z,7.19
2022-09-28T03:33:49.821Z,7.13
2022-09-28T03:36:17.464Z,7.10
2022-09-28T03:38:45.099Z,7.07
2022-09-28T03:41:12.844Z,7.13
2022-09-28T03:43:40.630Z,7.16
2022-09-28T03:46:08.350Z,7.24
2022-09-28T03:48:37.198Z,7.29
2022-09-28T03:51:09.256Z,7.31
2022-09-28T03:53:37.385Z,7.30
2022-09-28T03:56:07.344Z,7.34
2022-09-28T03:58:35.654Z,7.32
2022-09-28T04:01:04.666Z,7.32
2022-09-28T04:03:32.582Z,7.38
2022-09-28T04:06:00.359Z,7.38
2022-09-28T04:08:29.921Z,7.37
2022-09-28T04:10:58.499Z,7.36
2022-09-28T04:13:26.250Z,7.39
2022-09-28T04:15:55.163Z,7.38
2022-09-28T04:18:23.654Z,7.40
2022-09-28T04:20:59.827Z,7.38
2022-09-28T04:23:29.908Z,7.40
2022-09-28T04:25:57.633Z,7.37
2022-09-28T04:28:42.983Z,7.37
2022-09-28T04:31:12.129Z,7.36
2022-09-28T04:33:39.857Z,7.32
2022-09-28T04:36:09.245Z,7.33
2022-09-28T04:38:52.222Z,7.29
2022-09-28T04:41:22.526Z,7.31
2022-09-28T04:43:50.889Z,7.26
2022-09-28T04:46:19.245Z,7.28
2022-09-28T04:48:46.989Z,7.28
2022-09-28T04:51:14.763Z,7.23
2022-09-28T04:53:43.804Z,7.23
2022-09-28T04:56:13.104Z,7.20
2022-09-28T04:58:40.873Z,7.22
2022-09-28T05:01:10.557Z,7.24
2022-09-28T05:03:39.378Z,7.23
2022-09-28T05:06:07.907Z,7.15
2022-09-28T05:08:36.116Z,7.15
2022-09-28T05:11:06.655Z,7.21
2022-09-28T05:13:38.251Z,7.22
2022-09-28T05:16:06.310Z,7.26
2022-09-28T05:18:34.091Z,7.31
2022-09-28T05:21:02.059Z,7.32
2022-09-28T05:23:29.815Z,7.30
2022-09-28T05:25:57.477Z,7.29
2022-09-28T05:28:29.941Z,7.31
2022-09-28T05:31:00.026Z,7.32
2022-09-28T05:33:28.395Z,7.36
2022-09-28T05:36:00.803Z,7.37
2022-09-28T05:38:28.990Z,7.36
2022-09-28T05:40:56.753Z,7.37
2022-09-28T05:43:25.936Z,7.38
2022-09-28T05:45:55.781Z,7.31
2022-09-28T05:48:23.767Z,7.37
2022-09-28T05:50:52.311Z,7.45
2022-09-28T05:53:20.283Z,7.43
2022-09-28T05:55:48.310Z,7.41
2022-09-28T05:58:16.139Z,7.38
2022-09-28T06:00:45.403Z,7.39
2022-09-28T06:03:15.199Z,7.38
2022-09-28T06:05:43.188Z,7.38
2022-09-28T06:08:11.610Z,7.36
2022-09-28T06:10:40.374Z,7.33
2022-09-28T06:13:08.841Z,7.38
2022-09-28T06:15:37.954Z,7.39
2022-09-28T06:18:10.473Z,7.35
2022-09-28T06:20:41.034Z,7.38
2022-09-28T06:23:09.112Z,7.37
2022-09-28T06:25:36.823Z,7.37
2022-09-28T06:28:05.929Z,7.39
2022-09-28T06:30:38.096Z,7.38
2022-09-28T06:33:10.738Z,7.34
2022-09-28T06:35:38.513Z,7.41
2022-09-28T06:38:06.269Z,7.46
2022-09-28T06:40:34.911Z,7.47
2022-09-28T06:43:06.674Z,7.46
2022-09-28T06:45:34.369Z,7.49
2022-09-28T06:48:03.202Z,7.54
2022-09-28T06:50:33.790Z,7.56
2022-09-28T06:53:02.378Z,7.58
2022-09-28T06:55:30.894Z,7.56
2022-09-28T06:58:00.080Z,7.62
2022-09-28T07:00:36.895Z,7.65
2022-09-28T07:03:07.629Z,7.71
2022-09-28T07:05:38.371Z,7.72
2022-09-28T07:08:06.432Z,7.73
2022-09-28T07:10:34.667Z,7.78
2022-09-28T07:13:04.829Z,7.82
2022-09-28T07:15:33.639Z,7.80
2022-09-28T07:18:04.135Z,7.86
2022-09-28T07:20:39.986Z,7.89
2022-09-28T07:23:19.388Z,7.85
2022-09-28T07:25:49.585Z,7.81
2022-09-28T07:28:19.930Z,7.84
2022-09-28T07:30:48.703Z,7.87
2022-09-28T07:33:18.211Z,7.93
2022-09-28T07:35:52.217Z,7.92
2022-09-28T07:38:22.075Z,7.94
2022-09-28T07:41:07.446Z,8.01
2022-09-28T07:43:35.375Z,8.08
2022-09-28T07:46:03.347Z,8.19
2022-09-28T07:48:37.792Z,8.22
2022-09-28T07:51:05.951Z,8.27
2022-09-28T07:53:35.332Z,8.22
2022-09-28T07:56:07.963Z,8.26
2022-09-28T07:58:36.806Z,8.21
2022-09-28T08:01:07.296Z,8.31
2022-09-28T08:03:36.095Z,8.31
2022-09-28T08:06:07.327Z,8.38
2022-09-28T08:08:37.148Z,8.39
2022-09-28T08:37:28.759Z,8.72
2022-09-28T08:39:57.053Z,8.77
2022-09-28T08:42:35.351Z,8.85
2022-09-28T08:45:09.552Z,8.88
2022-09-28T08:48:04.296Z,8.90
2022-09-28T08:50:36.253Z,9.00
2022-09-28T08:53:20.438Z,8.99
2022-09-28T08:55:49.317Z,8.97
2022-09-28T08:58:23.374Z,9.06
2022-09-28T09:00:54.191Z,9.09
2022-09-28T09:03:24.525Z,9.20
2022-09-28T09:06:04.153Z,9.13
2022-09-28T09:08:46.017Z,9.20
2022-09-28T09:11:28.443Z,9.32
2022-09-28T09:14:27.800Z,9.42
2022-09-28T09:17:02.989Z,9.43
2022-09-28T09:19:40.588Z,9.47
2022-09-28T09:22:16.958Z,9.37
2022-09-28T09:24:51.465Z,9.08
2022-09-28T09:27:42.577Z,8.61
2022-09-28T09:30:12.899Z,8.34
2022-09-28T09:33:05.205Z,8.39
2022-09-28T09:36:10.377Z,8.32
2022-09-28T09:38:50.067Z,8.14
2022-09-28T09:41:32.637Z,8.24
2022-09-28T09:44:29.081Z,8.17
2022-09-28T09:46:58.873Z,8.21
2022-09-28T09:49:32.434Z,8.30
2022-09-28T09:52:05.141Z,8.50
2022-09-28T09:54:38.404Z,8.57
2022-09-28T09:57:12.576Z,8.69
2022-09-28T09:59:44.502Z,8.76
2022-09-28T10:02:22.051Z,8.76
2022-09-28T10:04:53.297Z,8.76
2022-09-28T10:07:25.492Z,8.75
2022-09-28T10:09:58.320Z,8.74
2022-09-28T10:12:27.483Z,8.86
2022-09-28T10:14:56.227Z,8.68
2022-09-28T10:17:27.259Z,8.70
2022-09-28T10:19:56.928Z,8.67
2022-09-28T10:22:27.843Z,8.78
2022-09-28T10:24:58.548Z,8.84
2022-09-28T10:27:33.469Z,8.99
2022-09-28T10:30:11.233Z,9.08
2022-09-28T10:32:40.735Z,8.93
2022-09-28T10:35:22.476Z,8.83
2022-09-28T10:37:55.329Z,8.85
2022-09-28T10:40:43.870Z,9.00
2022-09-28T10:43:23.005Z,9.19
2022-09-28T10:46:01.943Z,9.13
2022-09-28T10:48:33.187Z,9.29
2022-09-28T10:51:04.509Z,9.38
2022-09-28T10:53:32.324Z,9.56
2022-09-28T10:56:03.613Z,9.50
2022-09-28T10:58:39.340Z,9.52
2022-09-28T11:01:11.301Z,9.68
2022-09-28T11:03:52.896Z,9.61
2022-09-28T11:06:26.925Z,9.69
2022-09-28T11:08:57.527Z,9.71
2022-09-28T11:11:25.719Z,9.97
2022-09-28T11:13:57.606Z,10.15
2022-09-28T11:16:30.011Z,10.29
2022-09-28T11:18:59.893Z,10.39
2022-09-28T11:21:32.129Z,10.28
2022-09-28T11:24:08.366Z,10.17
2022-09-28T11:26:39.549Z,10.16
2022-09-28T11:29:21.357Z,10.10
2022-09-28T11:31:49.286Z,10.02
2022-09-28T11:34:31.361Z,9.98
2022-09-28T11:37:23.553Z,9.86
2022-09-28T11:40:01.527Z,9.84
2022-09-28T11:42:42.831Z,9.95
2022-09-28T11:45:28.563Z,10.15
2022-09-28T11:48:00.616Z,10.23
2022-09-28T11:50:46.415Z,10.35
2022-09-28T11:53:24.020Z,10.38
2022-09-28T11:55:59.193Z,10.30
2022-09-28T11:58:32.592Z,10.10
2022-09-28T12:01:06.241Z,10.13
2022-09-28T12:03:40.529Z,10.12
2022-09-28T12:06:13.823Z,10.05
2022-09-28T12:08:46.877Z,10.01
2022-09-28T12:11:19.444Z,10.17
2022-09-28T12:13:51.569Z,10.31
2022-09-28T12:16:53.517Z,10.61
2022-09-28T12:19:20.029Z,10.86
2022-09-28T12:21:51.923Z,10.91
2022-09-28T12:24:24.260Z,10.82
2022-09-28T12:26:57.654Z,10.80
2022-09-28T12:29:30.468Z,10.59
2022-09-28T12:32:06.841Z,10.39
2022-09-28T12:34:34.854Z,10.54
2022-09-28T12:37:28.079Z,10.57
2022-09-28T12:40:24.574Z,10.55
2022-09-28T12:43:01.625Z,10.43
2022-09-28T12:46:09.839Z,10.58
2022-09-28T12:51:53.994Z,10.37
2022-09-28T12:54:55.420Z,10.30
2022-09-28T12:57:42.852Z,10.36
2022-09-28T13:00:14.458Z,10.57
2022-09-28T13:03:07.531Z,10.90
2022-09-28T13:05:55.852Z,11.04
2022-09-28T13:08:36.039Z,11.18
2022-09-28T13:11:19.834Z,11.10
2022-09-28T13:13:56.407Z,10.97
2022-09-28T13:16:31.920Z,10.81
2022-09-28T13:19:07.122Z,10.24
2022-09-28T13:21:45.329Z,10.10
2022-09-28T13:24:32.156Z,9.89
2022-09-28T13:27:06.063Z,9.56
2022-09-28T13:29:35.710Z,9.50
2022-09-28T13:32:04.441Z,9.29
2022-09-28T13:34:35.186Z,9.00
2022-09-28T13:37:22.234Z,9.00
2022-09-28T13:39:52.820Z,9.03
2022-09-28T13:42:37.936Z,9.08
2022-09-28T13:45:25.227Z,9.15
2022-09-28T13:48:04.803Z,9.12
2022-09-28T13:50:45.787Z,8.91
2022-09-28T13:53:27.738Z,8.82
2022-09-28T13:56:03.170Z,8.84
2022-09-28T13:58:37.312Z,8.69
2022-09-28T14:01:11.347Z,8.69
2022-09-28T14:03:57.173Z,8.81
2022-09-28T14:06:28.150Z,8.75
2022-09-28T14:09:25.556Z,8.71
2022-09-28T14:11:58.932Z,8.77
2022-09-28T14:14:49.815Z,8.99
2022-09-28T14:17:54.391Z,9.11
2022-09-28T14:20:27.261Z,9.14
2022-09-28T14:23:27.276Z,9.02
2022-09-28T14:26:21.697Z,9.05
2022-09-28T14:29:09.279Z,9.13
2022-09-28T14:31:43.403Z,9.14
2022-09-28T14:34:26.853Z,9.04
2022-09-28T14:37:12.239Z,9.10
2022-09-28T14:40:03.570Z,9.08
2022-09-28T14:42:32.935Z,9.00
2022-09-28T14:45:28.891Z,9.09
2022-09-28T14:48:15.244Z,9.01
2022-09-28T14:50:43.317Z,8.96
2022-09-28T14:53:19.708Z,9.07
2022-09-28T14:55:51.864Z,8.89
2022-09-28T14:58:23.764Z,8.78
2022-09-28T15:00:59.291Z,8.78
2022-09-28T15:03:28.250Z,8.77
2022-09-28T15:05:56.151Z,8.76
2022-09-28T15:08:23.909Z,8.82
2022-09-28T15:10:52.780Z,8.83
2022-09-28T15:13:25.834Z,8.87
2022-09-28T15:15:56.432Z,8.87
2022-09-28T15:18:57.707Z,8.85
2022-09-28T15:21:34.577Z,8.81
2022-09-28T15:24:02.513Z,8.80
2022-09-28T15:26:32.541Z,8.76
2022-09-28T15:29:04.007Z,8.83
2022-09-28T15:31:36.361Z,8.81
2022-09-28T15:34:30.323Z,8.63
2022-09-28T15:36:58.736Z,8.71
2022-09-28T15:39:32.043Z,8.61
2022-09-28T15:42:01.992Z,8.56
2022-09-28T15:44:33.511Z,8.52
2022-09-28T15:47:11.718Z,8.49
2022-09-28T15:49:45.189Z,8.50
2022-09-28T15:52:29.491Z,8.59
2022-09-28T15:54:59.002Z,8.58
2022-09-28T15:57:36.714Z,8.63
2022-09-28T16:00:22.560Z,8.56
2022-09-28T16:03:05.918Z,8.48
2022-09-28T16:05:42.933Z,8.46
2022-09-28T16:08:21.409Z,8.50
2022-09-28T16:10:59.130Z,8.45
2022-09-28T16:13:27.442Z,8.45
2022-09-28T16:15:59.942Z,8.48
2022-09-28T16:18:29.843Z,8.48
2022-09-28T16:21:13.352Z,8.42
2022-09-28T16:23:43.369Z,8.41
2022-09-28T16:26:17.590Z,8.42
2022-09-28T16:28:52.883Z,8.38
2022-09-28T16:31:34.363Z,8.31
2022-09-28T16:34:17.565Z,8.21
2022-09-28T16:36:47.785Z,8.27
2022-09-28T16:39:16.749Z,8.28
2022-09-28T16:41:49.648Z,8.18
2022-09-28T16:44:24.506Z,8.20
2022-09-28T16:46:56.906Z,8.14
2022-09-28T16:49:26.306Z,8.13
2022-09-28T16:51:54.229Z,8.10
2022-09-28T16:54:41.420Z,8.09
2022-09-28T16:57:12.254Z,8.10
2022-09-28T16:59:40.307Z,8.14
2022-09-28T17:02:42.123Z,8.14
2022-09-28T17:05:07.431Z,8.09
2022-09-28T17:07:35.444Z,8.11
2022-09-28T17:10:03.560Z,8.07
2022-09-28T17:12:31.334Z,8.03
2022-09-28T17:15:00.299Z,8.03
2022-09-28T17:17:31.478Z,8.01
2022-09-28T17:19:59.261Z,7.99
2022-09-28T17:22:27.037Z,7.92
2022-09-28T17:24:54.691Z,7.88
2022-09-28T17:27:22.413Z,7.92
2022-09-28T17:29:51.370Z,7.90
2022-09-28T17:32:20.436Z,7.88
2022-09-28T17:35:00.856Z,7.93
2022-09-28T17:37:36.226Z,7.85
2022-09-28T17:40:13.664Z,7.87
2022-09-28T17:42:41.404Z,7.93
2022-09-28T17:45:09.325Z,7.90
2022-09-28T17:47:37.410Z,7.90
2022-09-28T17:50:23.572Z,7.92
2022-09-28T17:52:53.081Z,7.83
2022-09-28T17:55:22.089Z,7.88
2022-09-28T17:57:49.823Z,7.90
2022-09-28T18:00:18.682Z,7.87
2022-09-28T18:02:46.451Z,7.90
2022-09-28T18:05:16.337Z,7.93
2022-09-28T18:07:47.600Z,7.93
2022-09-28T18:10:19.599Z,7.91
2022-09-28T18:12:47.302Z,7.88
2022-09-28T18:15:15.236Z,7.84
2022-09-28T18:17:43.206Z,7.82
2022-09-28T18:20:12.857Z,7.89
2022-09-28T18:22:42.221Z,7.86
2022-09-28T18:25:11.232Z,7.86
2022-09-28T18:27:39.726Z,7.88
2022-09-28T18:30:09.285Z,7.85
2022-09-28T18:32:38.688Z,7.87
2022-09-28T18:35:09.646Z,7.82
2022-09-28T18:37:38.566Z,7.85
2022-09-28T18:40:10.533Z,7.82
2022-09-28T18:42:40.130Z,7.85
2022-09-28T18:45:11.438Z,7.84
2022-09-28T18:47:40.127Z,7.80
2022-09-28T18:50:09.383Z,7.71
2022-09-28T18:52:38.101Z,7.66
2022-09-28T18:55:09.157Z,-98.16
2022-09-28T18:57:38.747Z,-144.85
2022-09-28T19:00:09.591Z,-144.85
2022-09-28T19:02:38.686Z,-144.85
2022-09-28T19:05:08.348Z,-144.85
2022-09-28T19:07:36.601Z,-144.85
2022-09-28T19:10:05.102Z,-144.85
2022-09-28T19:12:35.649Z,-144.85
2022-09-28T19:15:04.176Z,-144.85
2022-09-28T19:17:34.326Z,-144.85
2022-09-28T19:20:02.881Z,-144.85
2022-09-28T19:22:31.722Z,-144.85
2022-09-28T19:25:00.138Z,-98.16
2022-09-28T19:27:28.326Z,7.21
2022-09-28T19:29:58.217Z,7.19
2022-09-28T19:32:26.639Z,-98.16
2022-09-28T19:34:54.816Z,7.20
2022-09-28T19:37:23.533Z,-144.85
2022-09-28T19:39:51.687Z,7.17
2022-09-28T19:42:19.907Z,7.22
2022-09-28T19:44:48.261Z,7.24
2022-09-28T19:47:20.206Z,-98.16
2022-09-28T19:49:51.056Z,7.31
2022-09-28T19:52:19.172Z,7.32
2022-09-28T19:54:52.292Z,7.33
2022-09-28T19:57:20.712Z,7.38
2022-09-28T19:59:52.537Z,7.39
2022-09-28T20:02:23.583Z,7.42
2022-09-28T20:04:52.178Z,7.42
2022-09-28T20:07:20.693Z,7.43
2022-09-28T20:09:49.084Z,7.42
2022-09-28T20:12:17.249Z,7.43
2022-09-28T20:14:45.500Z,7.42
2022-09-28T20:17:13.654Z,-98.16
2022-09-28T20:19:43.349Z,-144.85
2022-09-28T20:22:12.377Z,21.25
2022-09-28T20:24:40.576Z,7.44
2022-09-28T20:27:09.080Z,7.45
2022-09-28T20:29:37.422Z,-144.85
2022-09-28T20:32:05.745Z,-144.85
2022-09-28T20:34:34.542Z,-144.85
2022-09-28T20:37:04.120Z,-144.85
2022-09-28T20:39:32.473Z,-144.85
2022-09-28T20:42:00.557Z,7.45
2022-09-28T20:44:28.857Z,7.41
2022-09-28T20:46:57.481Z,-98.16
2022-09-28T20:49:27.269Z,-144.85
2022-09-28T20:51:55.652Z,-144.85
2022-09-28T20:54:25.761Z,-144.85
2022-09-28T20:56:54.020Z,-144.85
2022-09-28T20:59:24.404Z,-144.85
2022-09-28T21:01:52.727Z,-144.85
2022-09-28T21:04:21.294Z,-144.85
2022-09-28T21:06:49.641Z,-144.85
2022-09-28T21:09:17.999Z,-144.85
2022-09-28T21:11:48.439Z,-144.85
2022-09-28T21:14:16.785Z,-144.85
2022-09-28T21:16:44.964Z,-144.85
2022-09-28T21:19:13.282Z,-144.85
2022-09-28T21:21:41.687Z,-144.85
2022-09-28T21:24:09.996Z,-144.85
2022-09-28T21:26:39.235Z,-144.85
2022-09-28T21:29:12.954Z,-144.85
2022-09-28T21:31:42.824Z,-144.85
2022-09-28T21:34:14.155Z,-144.85
2022-09-28T21:36:43.628Z,-144.85
2022-09-28T21:39:11.979Z,-144.85
2022-09-28T21:41:40.487Z,-144.85
2022-09-28T21:44:10.602Z,-144.85
2022-09-28T21:46:40.091Z,-144.85
2022-09-28T21:49:09.522Z,-144.85
2022-09-28T21:51:38.217Z,-144.85
2022-09-28T21:54:06.690Z,-144.85
2022-09-28T21:56:34.811Z,-144.85
2022-09-28T21:59:03.013Z,-144.85
2022-09-28T22:01:32.726Z,-144.85
2022-09-28T22:04:01.055Z,-144.85
2022-09-28T22:06:29.260Z,-144.85
2022-09-28T22:08:58.048Z,-144.85
2022-09-28T22:11:28.031Z,-144.85
2022-09-28T22:13:57.657Z,-144.85
2022-09-28T22:16:27.188Z,-144.85
2022-09-28T22:18:57.070Z,-144.85
2022-09-28T22:21:26.727Z,-144.85
2022-09-28T22:23:55.285Z,-144.85
2022-09-28T22:26:24.981Z,-144.85
2022-09-28T22:28:54.244Z,-144.85
2022-09-28T22:31:25.133Z,-144.85
2022-09-28T22:33:53.932Z,-144.85
2022-09-28T22:36:23.876Z,-144.85
2022-09-28T22:38:52.487Z,-144.85
2022-09-28T22:41:21.564Z,-144.85
2022-09-28T22:43:50.594Z,-144.85
2022-09-28T22:46:20.945Z,-144.85
2022-09-28T22:48:50.258Z,-144.85
2022-09-28T22:51:18.593Z,-144.85
2022-09-28T22:53:48.351Z,-144.85
2022-09-28T22:56:18.953Z,-144.85
2022-09-28T22:58:47.850Z,-144.85
2022-09-28T23:05:40.544Z,6.88
2022-09-28T23:08:08.640Z,6.86
2022-09-28T23:10:36.788Z,6.89
2022-09-28T23:13:04.887Z,6.90
2022-09-28T23:15:32.921Z,6.92
2022-09-28T23:18:01.109Z,6.94
2022-09-28T23:20:29.294Z,6.97
2022-09-28T23:22:59.015Z,7.02
2022-09-28T23:25:27.287Z,7.00
2022-09-28T23:27:55.292Z,7.06
2022-09-28T23:30:24.933Z,7.10
2022-09-28T23:32:54.380Z,7.11
2022-09-28T23:35:22.646Z,7.11
2022-09-28T23:37:52.026Z,7.16
2022-09-28T23:40:21.664Z,7.18
2022-09-28T23:42:49.800Z,7.15
2022-09-28T23:45:17.742Z,7.15
2022-09-28T23:47:45.703Z,7.17
2022-09-28T23:50:13.808Z,7.13
2022-09-28T23:52:42.001Z,7.10
2022-09-28T23:55:10.419Z,7.14
2022-09-28T23:57:43.869Z,7.09
